sensor_id;sensor_type;location;lat;lon;timestamp;pressure;altitude;pressure_sealevel;temperature;humidity
38612;BME280;24368;52.156;20.788;2023-02-01T00:03:55;99138.80;;;1.88;100.00
38612;BME280;24368;52.156;20.788;2023-02-01T00:08:57;99139.50;;;2.01;100.00
38612;BME280;24368;52.156;20.788;2023-02-01T00:13:59;99137.18;;;2.13;100.00
38612;BME280;24368;52.156;20.788;2023-02-01T00:19:04;99151.30;;;2.10;100.00
38612;BME280;24368;52.156;20.788;2023-02-01T00:24:07;99152.05;;;2.06;100.00
38612;BME280;24368;52.156;20.788;2023-02-01T00:29:15;99156.73;;;2.08;100.00
38612;BME280;24368;52.156;20.788;2023-02-01T00:34:18;99154.52;;;2.12;100.00
38612;BME280;24368;52.156;20.788;2023-02-01T00:39:20;99165.86;;;2.23;100.00
38612;BME280;24368;52.156;20.788;2023-02-01T00:44:22;99164.13;;;2.32;100.00
38612;BME280;24368;52.156;20.788;2023-02-01T00:49:24;99174.08;;;2.35;100.00
38612;BME280;24368;52.156;20.788;2023-02-01T00:54:25;99181.06;;;2.37;100.00
38612;BME280;24368;52.156;20.788;2023-02-01T00:59:27;99181.68;;;2.40;100.00
38612;BME280;24368;52.156;20.788;2023-02-01T01:04:29;99179.12;;;2.35;100.00
38612;BME280;24368;52.156;20.788;2023-02-01T01:09:30;99179.13;;;2.27;100.00
38612;BME280;24368;52.156;20.788;2023-02-01T01:14:32;99168.00;;;2.17;100.00
38612;BME280;24368;52.156;20.788;2023-02-01T01:19:34;99172.77;;;2.07;100.00
38612;BME280;24368;52.156;20.788;2023-02-01T01:24:36;99187.73;;;2.01;100.00
38612;BME280;24368;52.156;20.788;2023-02-01T01:29:38;99192.48;;;2.03;100.00
38612;BME280;24368;52.156;20.788;2023-02-01T01:34:40;99188.34;;;2.08;100.00
38612;BME280;24368;52.156;20.788;2023-02-01T01:39:41;99196.05;;;2.12;100.00
38612;BME280;24368;52.156;20.788;2023-02-01T01:45:05;99197.02;;;2.15;100.00
38612;BME280;24368;52.156;20.788;2023-02-01T01:50:09;99193.86;;;1.99;100.00
38612;BME280;24368;52.156;20.788;2023-02-01T01:55:13;99200.50;;;1.90;100.00
38612;BME280;24368;52.156;20.788;2023-02-01T02:00:17;99209.20;;;1.85;100.00
38612;BME280;24368;52.156;20.788;2023-02-01T02:05:21;99223.33;;;1.97;100.00
38612;BME280;24368;52.156;20.788;2023-02-01T02:10:23;99222.63;;;2.03;100.00
38612;BME280;24368;52.156;20.788;2023-02-01T02:21:23;99226.93;;;2.08;100.00
38612;BME280;24368;52.156;20.788;2023-02-01T02:26:46;99230.02;;;2.09;100.00
38612;BME280;24368;52.156;20.788;2023-02-01T02:37:38;99245.23;;;2.11;100.00
38612;BME280;24368;52.156;20.788;2023-02-01T02:48:55;99245.92;;;2.10;100.00
38612;BME280;24368;52.156;20.788;2023-02-01T02:59:26;99248.66;;;2.04;100.00
38612;BME280;24368;52.156;20.788;2023-02-01T03:04:52;99247.55;;;2.07;100.00
38612;BME280;24368;52.156;20.788;2023-02-01T03:09:58;99251.05;;;2.09;100.00
38612;BME280;24368;52.156;20.788;2023-02-01T03:15:10;99251.30;;;2.01;100.00
38612;BME280;24368;52.156;20.788;2023-02-01T03:20:15;99254.62;;;1.94;100.00
38612;BME280;24368;52.156;20.788;2023-02-01T03:25:21;99262.02;;;1.96;100.00
38612;BME280;24368;52.156;20.788;2023-02-01T03:30:29;99260.89;;;1.95;100.00
38612;BME280;24368;52.156;20.788;2023-02-01T03:40:39;99266.94;;;2.06;100.00
38612;BME280;24368;52.156;20.788;2023-02-01T03:45:48;99272.95;;;2.12;100.00
38612;BME280;24368;52.156;20.788;2023-02-01T03:50:53;99264.99;;;2.14;100.00
38612;BME280;24368;52.156;20.788;2023-02-01T03:55:57;99270.04;;;2.20;100.00
38612;BME280;24368;52.156;20.788;2023-02-01T04:01:00;99266.20;;;2.23;100.00
38612;BME280;24368;52.156;20.788;2023-02-01T04:06:02;99267.34;;;2.21;100.00
38612;BME280;24368;52.156;20.788;2023-02-01T04:11:03;99275.33;;;2.24;100.00
38612;BME280;24368;52.156;20.788;2023-02-01T04:16:05;99280.20;;;2.24;100.00
38612;BME280;24368;52.156;20.788;2023-02-01T04:21:07;99279.59;;;2.25;100.00
38612;BME280;24368;52.156;20.788;2023-02-01T04:26:09;99282.29;;;2.22;100.00
38612;BME280;24368;52.156;20.788;2023-02-01T04:31:11;99286.18;;;2.18;100.00
38612;BME280;24368;52.156;20.788;2023-02-01T04:36:12;99277.64;;;2.18;100.00
38612;BME280;24368;52.156;20.788;2023-02-01T04:41:15;99288.63;;;2.23;100.00
38612;BME280;24368;52.156;20.788;2023-02-01T04:46:20;99299.84;;;2.22;100.00
38612;BME280;24368;52.156;20.788;2023-02-01T04:51:22;99294.84;;;2.24;100.00
38612;BME280;24368;52.156;20.788;2023-02-01T04:56:23;99298.05;;;2.29;100.00
38612;BME280;24368;52.156;20.788;2023-02-01T05:01:25;99313.20;;;2.28;100.00
38612;BME280;24368;52.156;20.788;2023-02-01T05:06:27;99310.23;;;2.31;100.00
38612;BME280;24368;52.156;20.788;2023-02-01T05:11:29;99309.91;;;2.30;100.00
38612;BME280;24368;52.156;20.788;2023-02-01T05:16:49;99302.46;;;2.26;100.00
38612;BME280;24368;52.156;20.788;2023-02-01T05:21:51;99301.55;;;2.27;100.00
38612;BME280;24368;52.156;20.788;2023-02-01T05:26:52;99305.13;;;2.27;100.00
38612;BME280;24368;52.156;20.788;2023-02-01T05:31:54;99296.52;;;2.22;100.00
38612;BME280;24368;52.156;20.788;2023-02-01T05:36:56;99292.19;;;2.07;100.00
38612;BME280;24368;52.156;20.788;2023-02-01T05:41:58;99277.98;;;2.08;100.00
38612;BME280;24368;52.156;20.788;2023-02-01T05:46:59;99283.58;;;2.04;100.00
38612;BME280;24368;52.156;20.788;2023-02-01T05:52:02;99284.84;;;2.01;100.00
38612;BME280;24368;52.156;20.788;2023-02-01T05:57:03;99297.06;;;2.00;100.00
38612;BME280;24368;52.156;20.788;2023-02-01T06:02:05;99295.98;;;2.01;100.00
38612;BME280;24368;52.156;20.788;2023-02-01T06:07:08;99283.77;;;2.04;100.00
38612;BME280;24368;52.156;20.788;2023-02-01T06:12:11;99287.42;;;2.14;100.00
38612;BME280;24368;52.156;20.788;2023-02-01T06:17:13;99288.52;;;2.19;100.00
38612;BME280;24368;52.156;20.788;2023-02-01T06:22:15;99290.55;;;2.18;100.00
38612;BME280;24368;52.156;20.788;2023-02-01T06:27:17;99289.73;;;2.13;100.00
38612;BME280;24368;52.156;20.788;2023-02-01T06:32:19;99288.73;;;2.19;100.00
38612;BME280;24368;52.156;20.788;2023-02-01T06:37:20;99278.84;;;2.19;100.00
38612;BME280;24368;52.156;20.788;2023-02-01T06:42:22;99273.71;;;2.16;100.00
38612;BME280;24368;52.156;20.788;2023-02-01T06:47:24;99282.15;;;2.19;100.00
38612;BME280;24368;52.156;20.788;2023-02-01T06:52:26;99272.37;;;2.22;100.00
38612;BME280;24368;52.156;20.788;2023-02-01T06:57:28;99267.88;;;2.26;100.00
38612;BME280;24368;52.156;20.788;2023-02-01T07:02:31;99269.02;;;2.25;100.00
38612;BME280;24368;52.156;20.788;2023-02-01T07:07:33;99273.30;;;2.28;100.00
38612;BME280;24368;52.156;20.788;2023-02-01T07:12:35;99269.35;;;2.27;100.00
38612;BME280;24368;52.156;20.788;2023-02-01T07:17:37;99265.48;;;2.29;100.00
38612;BME280;24368;52.156;20.788;2023-02-01T07:22:39;99276.52;;;2.33;100.00
38612;BME280;24368;52.156;20.788;2023-02-01T07:27:41;99269.98;;;2.38;100.00
38612;BME280;24368;52.156;20.788;2023-02-01T07:32:42;99278.41;;;2.59;100.00
38612;BME280;24368;52.156;20.788;2023-02-01T07:37:44;99285.04;;;2.65;100.00
38612;BME280;24368;52.156;20.788;2023-02-01T07:42:48;99281.75;;;2.61;100.00
38612;BME280;24368;52.156;20.788;2023-02-01T07:47:51;99279.48;;;2.65;100.00
38612;BME280;24368;52.156;20.788;2023-02-01T07:52:54;99288.00;;;2.72;100.00
38612;BME280;24368;52.156;20.788;2023-02-01T07:57:58;99284.34;;;2.76;100.00
38612;BME280;24368;52.156;20.788;2023-02-01T08:03:00;99275.61;;;2.72;100.00
38612;BME280;24368;52.156;20.788;2023-02-01T08:08:03;99274.63;;;2.74;100.00
38612;BME280;24368;52.156;20.788;2023-02-01T08:13:05;99269.58;;;2.78;100.00
38612;BME280;24368;52.156;20.788;2023-02-01T08:18:07;99275.70;;;2.79;100.00
38612;BME280;24368;52.156;20.788;2023-02-01T08:23:08;99270.80;;;2.82;100.00
38612;BME280;24368;52.156;20.788;2023-02-01T08:28:10;99274.21;;;2.85;100.00
38612;BME280;24368;52.156;20.788;2023-02-01T08:33:12;99265.61;;;2.87;100.00
38612;BME280;24368;52.156;20.788;2023-02-01T08:38:14;99269.43;;;2.83;100.00
38612;BME280;24368;52.156;20.788;2023-02-01T08:43:16;99267.16;;;2.87;100.00
38612;BME280;24368;52.156;20.788;2023-02-01T08:48:17;99273.30;;;2.97;100.00
38612;BME280;24368;52.156;20.788;2023-02-01T08:53:19;99277.79;;;3.00;100.00
38612;BME280;24368;52.156;20.788;2023-02-01T08:58:21;99284.04;;;3.06;100.00
38612;BME280;24368;52.156;20.788;2023-02-01T09:03:23;99290.63;;;3.06;100.00
38612;BME280;24368;52.156;20.788;2023-02-01T09:08:25;99272.46;;;3.11;100.00
38612;BME280;24368;52.156;20.788;2023-02-01T09:13:27;99277.84;;;3.13;100.00
38612;BME280;24368;52.156;20.788;2023-02-01T09:18:29;99284.75;;;3.11;100.00
38612;BME280;24368;52.156;20.788;2023-02-01T09:23:31;99286.90;;;3.14;100.00
38612;BME280;24368;52.156;20.788;2023-02-01T09:28:33;99283.38;;;3.23;100.00
38612;BME280;24368;52.156;20.788;2023-02-01T09:33:35;99283.55;;;3.32;100.00
38612;BME280;24368;52.156;20.788;2023-02-01T09:38:37;99279.23;;;3.31;100.00
38612;BME280;24368;52.156;20.788;2023-02-01T09:43:53;99282.98;;;3.30;100.00
38612;BME280;24368;52.156;20.788;2023-02-01T09:49:01;99279.64;;;3.32;100.00
38612;BME280;24368;52.156;20.788;2023-02-01T09:54:12;99269.55;;;3.40;100.00
38612;BME280;24368;52.156;20.788;2023-02-01T10:00:02;99267.75;;;3.54;100.00
38612;BME280;24368;52.156;20.788;2023-02-01T10:04:37;99266.83;;;3.55;100.00
38612;BME280;24368;52.156;20.788;2023-02-01T10:30:54;99259.19;;;3.55;100.00
38612;BME280;24368;52.156;20.788;2023-02-01T10:36:16;99272.80;;;3.49;100.00
38612;BME280;24368;52.156;20.788;2023-02-01T10:41:22;99265.80;;;3.41;100.00
38612;BME280;24368;52.156;20.788;2023-02-01T10:46:25;99266.83;;;3.35;100.00
38612;BME280;24368;52.156;20.788;2023-02-01T10:51:34;99272.30;;;3.36;100.00
38612;BME280;24368;52.156;20.788;2023-02-01T10:56:40;99273.89;;;3.36;100.00
38612;BME280;24368;52.156;20.788;2023-02-01T11:01:47;99261.25;;;3.32;100.00
38612;BME280;24368;52.156;20.788;2023-02-01T11:17:28;99252.55;;;3.67;100.00
38612;BME280;24368;52.156;20.788;2023-02-01T11:22:30;99253.02;;;3.73;100.00
38612;BME280;24368;52.156;20.788;2023-02-01T11:27:33;99245.17;;;3.67;100.00
38612;BME280;24368;52.156;20.788;2023-02-01T11:32:35;99248.33;;;3.61;100.00
38612;BME280;24368;52.156;20.788;2023-02-01T11:37:39;99242.39;;;3.79;100.00
38612;BME280;24368;52.156;20.788;2023-02-01T11:42:56;99239.30;;;5.60;98.26
38612;BME280;24368;52.156;20.788;2023-02-01T11:47:59;99226.19;;;8.30;85.39
38612;BME280;24368;52.156;20.788;2023-02-01T12:25:18;99208.27;;;3.59;100.00
38612;BME280;24368;52.156;20.788;2023-02-01T12:30:50;99210.65;;;3.64;100.00
38612;BME280;24368;52.156;20.788;2023-02-01T12:46:31;99216.70;;;3.80;100.00
38612;BME280;24368;52.156;20.788;2023-02-01T12:51:37;99206.34;;;4.00;100.00
38612;BME280;24368;52.156;20.788;2023-02-01T12:56:53;99209.25;;;4.29;100.00
38612;BME280;24368;52.156;20.788;2023-02-01T13:07:31;99210.90;;;4.03;100.00
38612;BME280;24368;52.156;20.788;2023-02-01T13:12:43;99214.27;;;3.76;100.00
38612;BME280;24368;52.156;20.788;2023-02-01T13:17:46;99215.39;;;3.63;100.00
38612;BME280;24368;52.156;20.788;2023-02-01T13:23:35;99219.54;;;3.52;100.00
38612;BME280;24368;52.156;20.788;2023-02-01T13:28:45;99227.09;;;3.34;100.00
38612;BME280;24368;52.156;20.788;2023-02-01T13:45:16;99242.46;;;3.27;100.00
38612;BME280;24368;52.156;20.788;2023-02-01T13:55:35;99241.63;;;3.15;100.00
38612;BME280;24368;52.156;20.788;2023-02-01T14:00:40;99249.59;;;3.21;100.00
38612;BME280;24368;52.156;20.788;2023-02-01T14:21:29;99224.54;;;3.60;100.00
38612;BME280;24368;52.156;20.788;2023-02-01T14:32:06;99229.11;;;3.70;100.00
38612;BME280;24368;52.156;20.788;2023-02-01T14:42:47;99231.37;;;3.66;100.00
38612;BME280;24368;52.156;20.788;2023-02-01T14:58:16;99242.42;;;3.55;100.00
38612;BME280;24368;52.156;20.788;2023-02-01T15:03:45;99243.54;;;3.47;100.00
38612;BME280;24368;52.156;20.788;2023-02-01T15:08:54;99236.29;;;3.46;100.00
38612;BME280;24368;52.156;20.788;2023-02-01T15:13:57;99249.65;;;3.49;100.00
38612;BME280;24368;52.156;20.788;2023-02-01T15:19:09;99244.05;;;3.47;100.00
38612;BME280;24368;52.156;20.788;2023-02-01T15:24:31;99244.79;;;3.48;100.00
38612;BME280;24368;52.156;20.788;2023-02-01T15:29:33;99243.57;;;3.47;100.00
38612;BME280;24368;52.156;20.788;2023-02-01T15:34:47;99241.95;;;3.39;100.00
38612;BME280;24368;52.156;20.788;2023-02-01T15:45:17;99249.05;;;3.20;100.00
38612;BME280;24368;52.156;20.788;2023-02-01T15:50:20;99244.62;;;3.09;100.00
38612;BME280;24368;52.156;20.788;2023-02-01T15:55:37;99245.78;;;3.03;100.00
38612;BME280;24368;52.156;20.788;2023-02-01T16:00:50;99250.45;;;3.02;100.00
38612;BME280;24368;52.156;20.788;2023-02-01T16:06:00;99251.40;;;2.95;100.00
38612;BME280;24368;52.156;20.788;2023-02-01T16:16:10;99253.95;;;2.95;100.00
38612;BME280;24368;52.156;20.788;2023-02-01T16:21:15;99248.96;;;2.97;100.00
38612;BME280;24368;52.156;20.788;2023-02-01T16:26:17;99242.75;;;2.98;100.00
38612;BME280;24368;52.156;20.788;2023-02-01T16:31:25;99245.97;;;2.99;100.00
38612;BME280;24368;52.156;20.788;2023-02-01T16:36:28;99245.83;;;2.99;100.00
38612;BME280;24368;52.156;20.788;2023-02-01T16:41:30;99248.73;;;2.91;100.00
38612;BME280;24368;52.156;20.788;2023-02-01T16:46:35;99249.71;;;2.94;100.00
38612;BME280;24368;52.156;20.788;2023-02-01T16:51:40;99256.37;;;2.94;100.00
38612;BME280;24368;52.156;20.788;2023-02-01T16:56:43;99249.96;;;2.85;100.00
38612;BME280;24368;52.156;20.788;2023-02-01T17:01:46;99250.77;;;2.78;100.00
38612;BME280;24368;52.156;20.788;2023-02-01T17:06:47;99250.02;;;2.72;100.00
38612;BME280;24368;52.156;20.788;2023-02-01T17:11:50;99252.80;;;2.70;100.00
38612;BME280;24368;52.156;20.788;2023-02-01T17:16:52;99262.10;;;2.74;100.00
38612;BME280;24368;52.156;20.788;2023-02-01T17:21:56;99259.39;;;2.81;100.00
38612;BME280;24368;52.156;20.788;2023-02-01T17:26:59;99264.27;;;2.83;100.00
38612;BME280;24368;52.156;20.788;2023-02-01T17:32:02;99261.09;;;2.83;100.00
38612;BME280;24368;52.156;20.788;2023-02-01T17:37:05;99258.92;;;2.84;100.00
38612;BME280;24368;52.156;20.788;2023-02-01T17:42:10;99254.05;;;2.84;100.00
38612;BME280;24368;52.156;20.788;2023-02-01T17:47:12;99261.55;;;2.84;100.00
38612;BME280;24368;52.156;20.788;2023-02-01T17:52:16;99267.10;;;2.84;100.00
38612;BME280;24368;52.156;20.788;2023-02-01T17:57:19;99268.84;;;2.86;100.00
38612;BME280;24368;52.156;20.788;2023-02-01T18:02:23;99269.09;;;2.87;100.00
38612;BME280;24368;52.156;20.788;2023-02-01T18:07:25;99269.89;;;2.86;100.00
38612;BME280;24368;52.156;20.788;2023-02-01T18:12:27;99273.38;;;2.80;100.00
38612;BME280;24368;52.156;20.788;2023-02-01T18:17:28;99265.11;;;2.75;100.00
38612;BME280;24368;52.156;20.788;2023-02-01T18:22:30;99259.06;;;2.75;100.00
38612;BME280;24368;52.156;20.788;2023-02-01T18:27:32;99266.95;;;2.74;100.00
38612;BME280;24368;52.156;20.788;2023-02-01T18:32:34;99273.12;;;2.71;100.00
38612;BME280;24368;52.156;20.788;2023-02-01T18:37:36;99266.21;;;2.70;100.00
38612;BME280;24368;52.156;20.788;2023-02-01T18:42:37;99261.05;;;2.76;100.00
38612;BME280;24368;52.156;20.788;2023-02-01T18:47:39;99258.64;;;2.76;100.00
38612;BME280;24368;52.156;20.788;2023-02-01T18:52:41;99257.09;;;2.69;100.00
38612;BME280;24368;52.156;20.788;2023-02-01T18:57:43;99258.39;;;2.70;100.00
38612;BME280;24368;52.156;20.788;2023-02-01T19:02:46;99252.17;;;2.67;100.00
38612;BME280;24368;52.156;20.788;2023-02-01T19:07:48;99245.93;;;2.61;100.00
38612;BME280;24368;52.156;20.788;2023-02-01T19:12:51;99237.59;;;2.43;100.00
38612;BME280;24368;52.156;20.788;2023-02-01T19:17:55;99237.31;;;2.34;100.00
38612;BME280;24368;52.156;20.788;2023-02-01T19:22:57;99241.35;;;2.33;100.00
38612;BME280;24368;52.156;20.788;2023-02-01T19:27:59;99240.24;;;2.38;100.00
38612;BME280;24368;52.156;20.788;2023-02-01T19:33:01;99239.59;;;2.38;100.00
38612;BME280;24368;52.156;20.788;2023-02-01T19:38:04;99233.09;;;2.34;100.00
38612;BME280;24368;52.156;20.788;2023-02-01T19:43:07;99237.41;;;2.41;100.00
38612;BME280;24368;52.156;20.788;2023-02-01T19:48:08;99230.33;;;2.44;100.00
38612;BME280;24368;52.156;20.788;2023-02-01T19:53:13;99232.91;;;2.45;100.00
38612;BME280;24368;52.156;20.788;2023-02-01T19:58:15;99229.95;;;2.43;100.00
38612;BME280;24368;52.156;20.788;2023-02-01T20:03:17;99224.13;;;2.48;100.00
38612;BME280;24368;52.156;20.788;2023-02-01T20:08:19;99215.64;;;2.51;100.00
38612;BME280;24368;52.156;20.788;2023-02-01T20:13:21;99226.70;;;2.48;100.00
38612;BME280;24368;52.156;20.788;2023-02-01T20:18:22;99222.52;;;2.54;100.00
38612;BME280;24368;52.156;20.788;2023-02-01T20:23:25;99228.67;;;2.57;100.00
38612;BME280;24368;52.156;20.788;2023-02-01T20:28:29;99223.98;;;2.62;100.00
38612;BME280;24368;52.156;20.788;2023-02-01T20:33:32;99217.23;;;2.57;100.00
38612;BME280;24368;52.156;20.788;2023-02-01T20:38:34;99221.91;;;2.55;100.00
38612;BME280;24368;52.156;20.788;2023-02-01T20:43:36;99223.42;;;2.60;100.00
38612;BME280;24368;52.156;20.788;2023-02-01T20:48:41;99220.61;;;2.52;100.00
38612;BME280;24368;52.156;20.788;2023-02-01T20:53:44;99210.50;;;2.49;100.00
38612;BME280;24368;52.156;20.788;2023-02-01T20:58:48;99205.64;;;2.50;100.00
38612;BME280;24368;52.156;20.788;2023-02-01T21:03:50;99201.21;;;2.43;100.00
38612;BME280;24368;52.156;20.788;2023-02-01T21:08:51;99200.55;;;2.37;100.00
38612;BME280;24368;52.156;20.788;2023-02-01T21:13:53;99208.99;;;2.42;100.00
38612;BME280;24368;52.156;20.788;2023-02-01T21:18:55;99207.83;;;2.41;100.00
38612;BME280;24368;52.156;20.788;2023-02-01T21:23:57;99202.46;;;2.39;100.00
38612;BME280;24368;52.156;20.788;2023-02-01T21:28:59;99202.77;;;2.35;100.00
38612;BME280;24368;52.156;20.788;2023-02-01T21:34:02;99202.27;;;2.27;100.00
38612;BME280;24368;52.156;20.788;2023-02-01T21:39:05;99206.02;;;2.28;100.00
38612;BME280;24368;52.156;20.788;2023-02-01T21:44:08;99208.96;;;2.28;100.00
38612;BME280;24368;52.156;20.788;2023-02-01T21:49:11;99206.52;;;2.22;100.00
38612;BME280;24368;52.156;20.788;2023-02-01T21:54:12;99206.77;;;2.23;100.00
38612;BME280;24368;52.156;20.788;2023-02-01T21:59:14;99202.60;;;2.27;100.00
38612;BME280;24368;52.156;20.788;2023-02-01T22:04:16;99192.02;;;2.35;100.00
38612;BME280;24368;52.156;20.788;2023-02-01T22:09:22;99183.52;;;2.31;100.00
38612;BME280;24368;52.156;20.788;2023-02-01T22:14:25;99180.84;;;2.28;100.00
38612;BME280;24368;52.156;20.788;2023-02-01T22:19:26;99186.73;;;2.38;100.00
38612;BME280;24368;52.156;20.788;2023-02-01T22:24:28;99193.91;;;2.39;100.00
38612;BME280;24368;52.156;20.788;2023-02-01T22:29:30;99197.77;;;2.35;100.00
38612;BME280;24368;52.156;20.788;2023-02-01T22:34:31;99196.27;;;2.40;100.00
38612;BME280;24368;52.156;20.788;2023-02-01T22:39:33;99194.72;;;2.40;100.00
38612;BME280;24368;52.156;20.788;2023-02-01T22:44:35;99195.73;;;2.26;100.00
38612;BME280;24368;52.156;20.788;2023-02-01T22:49:37;99192.96;;;2.05;100.00
38612;BME280;24368;52.156;20.788;2023-02-01T22:54:39;99186.41;;;1.96;100.00
38612;BME280;24368;52.156;20.788;2023-02-01T22:59:41;99179.21;;;1.97;100.00
38612;BME280;24368;52.156;20.788;2023-02-01T23:04:43;99186.10;;;1.94;100.00
38612;BME280;24368;52.156;20.788;2023-02-01T23:09:45;99183.14;;;1.84;100.00
38612;BME280;24368;52.156;20.788;2023-02-01T23:14:46;99186.36;;;1.82;100.00
38612;BME280;24368;52.156;20.788;2023-02-01T23:20:12;99182.10;;;1.92;100.00
38612;BME280;24368;52.156;20.788;2023-02-01T23:25:17;99180.65;;;1.92;100.00
38612;BME280;24368;52.156;20.788;2023-02-01T23:30:19;99178.48;;;1.99;100.00
38612;BME280;24368;52.156;20.788;2023-02-01T23:35:21;99180.28;;;2.01;100.00
38612;BME280;24368;52.156;20.788;2023-02-01T23:40:22;99182.39;;;2.05;100.00
38612;BME280;24368;52.156;20.788;2023-02-01T23:45:24;99189.01;;;1.88;100.00
38612;BME280;24368;52.156;20.788;2023-02-01T23:50:26;99191.92;;;1.95;100.00
38612;BME280;24368;52.156;20.788;2023-02-01T23:55:27;99189.01;;;2.01;100.00
